sensor_id;sensor_type;location;lat;lon;timestamp;pressure;altitude;pressure_sealevel;temperature;humidity
16030;BME280;34770;49.272;11.070;2022-07-15T00:01:34;97971.16;;;15.19;90.47
16030;BME280;34770;49.272;11.070;2022-07-15T00:04:00;97958.28;;;15.14;94.37
16030;BME280;34770;49.272;11.070;2022-07-15T00:06:25;97975.81;;;15.04;92.74
16030;BME280;34770;49.272;11.070;2022-07-15T00:08:51;97971.75;;;15.01;92.78
16030;BME280;34770;49.272;11.070;2022-07-15T00:11:17;97971.25;;;14.92;91.50
16030;BME280;34770;49.272;11.070;2022-07-15T00:13:42;97970.25;;;14.77;91.18
16030;BME280;34770;49.272;11.070;2022-07-15T00:16:07;97974.28;;;14.52;92.15
16030;BME280;34770;49.272;11.070;2022-07-15T00:18:33;97972.25;;;14.53;92.45
16030;BME280;34770;49.272;11.070;2022-07-15T00:20:58;97971.13;;;14.58;91.92
16030;BME280;34770;49.272;11.070;2022-07-15T00:23:24;97965.03;;;14.25;98.09
16030;BME280;34770;49.272;11.070;2022-07-15T00:25:50;97973.72;;;14.16;100.00
16030;BME280;34770;49.272;11.070;2022-07-15T00:28:15;97960.78;;;14.08;95.40
16030;BME280;34770;49.272;11.070;2022-07-15T00:30:41;97957.47;;;14.02;97.91
16030;BME280;34770;49.272;11.070;2022-07-15T00:33:08;97980.50;;;14.42;96.45
16030;BME280;34770;49.272;11.070;2022-07-15T00:35:35;97976.69;;;14.54;96.42
16030;BME280;34770;49.272;11.070;2022-07-15T00:38:02;97981.53;;;14.57;97.50
16030;BME280;34770;49.272;11.070;2022-07-15T00:40:28;97986.38;;;14.60;97.07
16030;BME280;34770;49.272;11.070;2022-07-15T00:42:54;97989.97;;;14.61;96.30
16030;BME280;34770;49.272;11.070;2022-07-15T00:45:21;97991.59;;;14.62;95.17
16030;BME280;34770;49.272;11.070;2022-07-15T00:47:49;97974.28;;;14.29;94.19
16030;BME280;34770;49.272;11.070;2022-07-15T00:50:16;97973.94;;;14.31;94.94
16030;BME280;34770;49.272;11.070;2022-07-15T00:52:54;97989.44;;;14.25;93.84
16030;BME280;34770;49.272;11.070;2022-07-15T00:55:22;97986.19;;;14.23;94.33
16030;BME280;34770;49.272;11.070;2022-07-15T00:57:49;97988.94;;;14.19;96.48
16030;BME280;34770;49.272;11.070;2022-07-15T01:00:15;97979.38;;;14.20;96.67
16030;BME280;34770;49.272;11.070;2022-07-15T01:02:43;97988.78;;;14.35;98.61
16030;BME280;34770;49.272;11.070;2022-07-15T01:05:17;97986.94;;;14.43;97.45
16030;BME280;34770;49.272;11.070;2022-07-15T01:07:44;97994.13;;;14.44;95.97
16030;BME280;34770;49.272;11.070;2022-07-15T01:10:09;97970.69;;;14.29;97.76
16030;BME280;34770;49.272;11.070;2022-07-15T01:12:36;97997.25;;;14.39;96.50
16030;BME280;34770;49.272;11.070;2022-07-15T01:15:06;98001.81;;;14.24;95.32
16030;BME280;34770;49.272;11.070;2022-07-15T01:17:32;97979.63;;;14.11;96.84
16030;BME280;34770;49.272;11.070;2022-07-15T01:19:58;97999.09;;;14.04;96.72
16030;BME280;34770;49.272;11.070;2022-07-15T01:22:23;97997.66;;;14.14;97.80
16030;BME280;34770;49.272;11.070;2022-07-15T01:24:50;98000.28;;;14.03;97.92
16030;BME280;34770;49.272;11.070;2022-07-15T01:27:15;98006.47;;;14.16;99.28
16030;BME280;34770;49.272;11.070;2022-07-15T01:29:41;98006.13;;;14.17;98.01
16030;BME280;34770;49.272;11.070;2022-07-15T01:32:06;97995.41;;;14.00;96.76
16030;BME280;34770;49.272;11.070;2022-07-15T01:34:32;97988.19;;;13.76;96.08
16030;BME280;34770;49.272;11.070;2022-07-15T01:36:57;98007.53;;;13.84;97.07
16030;BME280;34770;49.272;11.070;2022-07-15T01:39:22;97984.06;;;13.46;97.24
16030;BME280;34770;49.272;11.070;2022-07-15T01:41:48;98006.28;;;13.39;98.26
16030;BME280;34770;49.272;11.070;2022-07-15T01:44:13;97994.34;;;13.22;99.54
16030;BME280;34770;49.272;11.070;2022-07-15T01:46:42;98008.91;;;13.32;99.72
16030;BME280;34770;49.272;11.070;2022-07-15T01:49:08;98010.53;;;13.33;100.00
16030;BME280;34770;49.272;11.070;2022-07-15T01:51:54;98002.69;;;13.38;100.00
16030;BME280;34770;49.272;11.070;2022-07-15T01:54:21;98006.56;;;13.34;100.00
16030;BME280;34770;49.272;11.070;2022-07-15T01:56:51;98014.81;;;13.27;100.00
16030;BME280;34770;49.272;11.070;2022-07-15T01:59:17;98009.78;;;13.36;100.00
16030;BME280;34770;49.272;11.070;2022-07-15T02:01:43;98017.91;;;13.41;100.00
16030;BME280;34770;49.272;11.070;2022-07-15T02:04:10;98026.38;;;13.45;100.00
16030;BME280;34770;49.272;11.070;2022-07-15T02:06:36;98013.31;;;13.33;99.29
16030;BME280;34770;49.272;11.070;2022-07-15T02:09:01;98003.16;;;13.24;97.47
16030;BME280;34770;49.272;11.070;2022-07-15T02:11:27;98018.53;;;13.34;97.43
16030;BME280;34770;49.272;11.070;2022-07-15T02:13:52;98017.38;;;13.35;98.59
16030;BME280;34770;49.272;11.070;2022-07-15T02:16:22;98014.75;;;13.43;98.35
16030;BME280;34770;49.272;11.070;2022-07-15T02:18:48;98020.38;;;13.27;98.11
16030;BME280;34770;49.272;11.070;2022-07-15T02:21:13;98008.03;;;13.28;97.80
16030;BME280;34770;49.272;11.070;2022-07-15T02:23:39;98012.09;;;13.30;97.25
16030;BME280;34770;49.272;11.070;2022-07-15T02:26:04;97996.91;;;13.12;97.24
16030;BME280;34770;49.272;11.070;2022-07-15T02:28:29;98016.63;;;13.19;98.83
16030;BME280;34770;49.272;11.070;2022-07-15T02:30:56;98014.94;;;13.14;98.20
16030;BME280;34770;49.272;11.070;2022-07-15T02:33:22;98017.94;;;13.05;98.94
16030;BME280;34770;49.272;11.070;2022-07-15T02:35:47;98012.81;;;13.07;98.95
16030;BME280;34770;49.272;11.070;2022-07-15T02:38:12;98014.50;;;13.12;98.21
16030;BME280;34770;49.272;11.070;2022-07-15T02:40:38;98019.47;;;13.03;96.67
16030;BME280;34770;49.272;11.070;2022-07-15T02:43:03;98020.06;;;12.92;95.65
16030;BME280;34770;49.272;11.070;2022-07-15T02:45:33;98017.38;;;12.96;95.97
16030;BME280;34770;49.272;11.070;2022-07-15T02:47:58;98001.38;;;12.77;95.10
16030;BME280;34770;49.272;11.070;2022-07-15T02:50:24;98017.38;;;12.80;95.09
16030;BME280;34770;49.272;11.070;2022-07-15T02:52:49;98024.88;;;12.76;97.18
16030;BME280;34770;49.272;11.070;2022-07-15T02:55:15;98028.25;;;12.66;96.63
16030;BME280;34770;49.272;11.070;2022-07-15T02:57:41;98027.34;;;12.61;98.58
16030;BME280;34770;49.272;11.070;2022-07-15T03:00:09;98021.31;;;12.59;98.11
16030;BME280;34770;49.272;11.070;2022-07-15T03:02:36;98036.97;;;12.64;99.12
16030;BME280;34770;49.272;11.070;2022-07-15T03:05:03;98023.50;;;12.50;99.29
16030;BME280;34770;49.272;11.070;2022-07-15T03:07:28;98017.88;;;12.31;99.67
16030;BME280;34770;49.272;11.070;2022-07-15T03:09:54;98037.13;;;12.36;100.00
16030;BME280;34770;49.272;11.070;2022-07-15T03:12:20;98045.78;;;12.31;100.00
16030;BME280;34770;49.272;11.070;2022-07-15T03:14:45;98043.50;;;12.36;100.00
16030;BME280;34770;49.272;11.070;2022-07-15T03:17:11;98043.97;;;12.38;100.00
16030;BME280;34770;49.272;11.070;2022-07-15T03:19:37;98039.28;;;12.26;100.00
16030;BME280;34770;49.272;11.070;2022-07-15T03:22:02;98046.28;;;12.36;100.00
16030;BME280;34770;49.272;11.070;2022-07-15T03:24:28;98035.31;;;12.27;100.00
16030;BME280;34770;49.272;11.070;2022-07-15T03:26:53;98038.81;;;12.24;100.00
16030;BME280;34770;49.272;11.070;2022-07-15T03:29:18;98051.06;;;12.36;99.67
16030;BME280;34770;49.272;11.070;2022-07-15T03:31:45;98057.56;;;12.24;99.19
16030;BME280;34770;49.272;11.070;2022-07-15T03:34:10;98060.16;;;12.33;98.50
16030;BME280;34770;49.272;11.070;2022-07-15T03:36:37;98055.75;;;12.32;99.50
16030;BME280;34770;49.272;11.070;2022-07-15T03:39:04;98068.63;;;12.36;100.00
16030;BME280;34770;49.272;11.070;2022-07-15T03:41:29;98057.09;;;12.22;99.78
16030;BME280;34770;49.272;11.070;2022-07-15T03:43:55;98059.53;;;12.23;98.84
16030;BME280;34770;49.272;11.070;2022-07-15T03:46:20;98052.94;;;12.16;99.23
16030;BME280;34770;49.272;11.070;2022-07-15T03:48:46;98062.34;;;12.23;100.00
16030;BME280;34770;49.272;11.070;2022-07-15T03:51:11;98072.06;;;12.29;99.97
16030;BME280;34770;49.272;11.070;2022-07-15T03:53:37;98067.09;;;12.23;100.00
16030;BME280;34770;49.272;11.070;2022-07-15T03:56:02;98070.94;;;12.18;100.00
16030;BME280;34770;49.272;11.070;2022-07-15T03:58:28;98078.81;;;12.28;100.00
16030;BME280;34770;49.272;11.070;2022-07-15T04:00:53;98070.53;;;12.32;100.00
16030;BME280;34770;49.272;11.070;2022-07-15T04:03:18;98049.63;;;12.10;100.00
16030;BME280;34770;49.272;11.070;2022-07-15T04:05:44;98063.31;;;12.15;100.00
16030;BME280;34770;49.272;11.070;2022-07-15T04:08:09;98077.28;;;12.15;100.00
16030;BME280;34770;49.272;11.070;2022-07-15T04:10:35;98082.22;;;12.22;100.00
16030;BME280;34770;49.272;11.070;2022-07-15T04:13:01;98080.44;;;12.13;99.21
16030;BME280;34770;49.272;11.070;2022-07-15T04:15:26;98071.78;;;12.19;100.00
16030;BME280;34770;49.272;11.070;2022-07-15T04:17:52;98080.84;;;12.32;100.00
16030;BME280;34770;49.272;11.070;2022-07-15T04:20:17;98083.81;;;12.39;99.67
16030;BME280;34770;49.272;11.070;2022-07-15T04:22:44;98092.03;;;12.48;99.93
16030;BME280;34770;49.272;11.070;2022-07-15T04:25:11;98083.38;;;12.53;98.86
16030;BME280;34770;49.272;11.070;2022-07-15T04:27:39;98088.88;;;12.49;98.81
16030;BME280;34770;49.272;11.070;2022-07-15T04:30:05;98095.91;;;12.43;98.90
16030;BME280;34770;49.272;11.070;2022-07-15T04:32:31;98093.38;;;12.54;98.23
16030;BME280;34770;49.272;11.070;2022-07-15T04:34:56;98079.78;;;12.68;98.80
16030;BME280;34770;49.272;11.070;2022-07-15T04:37:22;98084.63;;;12.71;98.17
16030;BME280;34770;49.272;11.070;2022-07-15T04:39:47;98098.06;;;12.66;98.16
16030;BME280;34770;49.272;11.070;2022-07-15T04:42:13;98093.00;;;12.71;98.06
16030;BME280;34770;49.272;11.070;2022-07-15T04:44:38;98088.84;;;12.81;98.58
16030;BME280;34770;49.272;11.070;2022-07-15T04:47:04;98079.00;;;12.87;97.62
16030;BME280;34770;49.272;11.070;2022-07-15T04:49:29;98072.63;;;12.87;98.14
16030;BME280;34770;49.272;11.070;2022-07-15T04:52:14;98090.41;;;13.14;97.95
16030;BME280;34770;49.272;11.070;2022-07-15T04:54:39;98070.09;;;13.17;98.88
16030;BME280;34770;49.272;11.070;2022-07-15T04:57:05;98056.88;;;13.14;99.17
16030;BME280;34770;49.272;11.070;2022-07-15T04:59:30;98093.09;;;13.46;99.29
16030;BME280;34770;49.272;11.070;2022-07-15T05:01:57;98088.53;;;13.57;98.68
16030;BME280;34770;49.272;11.070;2022-07-15T05:04:23;98090.31;;;13.66;98.38
16030;BME280;34770;49.272;11.070;2022-07-15T05:06:48;98097.28;;;13.56;98.14
16030;BME280;34770;49.272;11.070;2022-07-15T05:09:13;98078.69;;;13.44;99.70
16030;BME280;34770;49.272;11.070;2022-07-15T05:11:39;98081.16;;;13.49;100.00
16030;BME280;34770;49.272;11.070;2022-07-15T05:14:04;98101.31;;;13.78;99.44
16030;BME280;34770;49.272;11.070;2022-07-15T05:16:29;98088.44;;;13.93;99.42
16030;BME280;34770;49.272;11.070;2022-07-15T05:18:55;98097.78;;;14.01;99.41
16030;BME280;34770;49.272;11.070;2022-07-15T05:21:21;98107.16;;;14.12;99.02
16030;BME280;34770;49.272;11.070;2022-07-15T05:23:46;98110.38;;;14.34;97.80
16030;BME280;34770;49.272;11.070;2022-07-15T05:26:12;98103.44;;;14.51;98.51
16030;BME280;34770;49.272;11.070;2022-07-15T05:28:38;98111.25;;;14.61;99.47
16030;BME280;34770;49.272;11.070;2022-07-15T05:31:04;98109.63;;;14.83;97.18
16030;BME280;34770;49.272;11.070;2022-07-15T05:33:30;98088.88;;;14.88;96.45
16030;BME280;34770;49.272;11.070;2022-07-15T05:35:55;98108.88;;;15.13;93.67
16030;BME280;34770;49.272;11.070;2022-07-15T05:38:21;98102.84;;;15.42;92.89
16030;BME280;34770;49.272;11.070;2022-07-15T05:40:46;98101.50;;;15.62;91.72
16030;BME280;34770;49.272;11.070;2022-07-15T05:43:11;98090.13;;;15.82;91.32
16030;BME280;34770;49.272;11.070;2022-07-15T05:45:37;98108.31;;;15.92;84.07
16030;BME280;34770;49.272;11.070;2022-07-15T05:48:02;98099.56;;;15.97;81.73
16030;BME280;34770;49.272;11.070;2022-07-15T05:50:28;98099.78;;;16.19;80.04
16030;BME280;34770;49.272;11.070;2022-07-15T05:52:53;98114.56;;;16.57;82.96
16030;BME280;34770;49.272;11.070;2022-07-15T05:55:19;98112.25;;;16.66;80.83
16030;BME280;34770;49.272;11.070;2022-07-15T05:57:44;98103.50;;;16.79;83.48
16030;BME280;34770;49.272;11.070;2022-07-15T06:00:10;98109.34;;;17.00;81.84
16030;BME280;34770;49.272;11.070;2022-07-15T06:02:36;98111.00;;;17.09;80.62
16030;BME280;34770;49.272;11.070;2022-07-15T06:05:01;98119.53;;;17.23;77.27
16030;BME280;34770;49.272;11.070;2022-07-15T06:07:27;98110.03;;;16.90;75.67
16030;BME280;34770;49.272;11.070;2022-07-15T06:09:52;98119.97;;;17.32;76.29
16030;BME280;34770;49.272;11.070;2022-07-15T06:12:17;98110.00;;;17.46;72.76
16030;BME280;34770;49.272;11.070;2022-07-15T06:14:43;98112.50;;;17.62;71.56
16030;BME280;34770;49.272;11.070;2022-07-15T06:17:08;98118.53;;;17.67;71.20
16030;BME280;34770;49.272;11.070;2022-07-15T06:19:34;98116.28;;;17.95;71.92
16030;BME280;34770;49.272;11.070;2022-07-15T06:21:59;98126.00;;;18.12;71.65
16030;BME280;34770;49.272;11.070;2022-07-15T06:24:25;98118.72;;;18.04;70.86
16030;BME280;34770;49.272;11.070;2022-07-15T06:26:51;98116.31;;;18.06;70.61
16030;BME280;34770;49.272;11.070;2022-07-15T06:29:16;98120.41;;;18.33;69.63
16030;BME280;34770;49.272;11.070;2022-07-15T06:31:42;98113.19;;;18.58;68.97
16030;BME280;34770;49.272;11.070;2022-07-15T06:34:08;98104.31;;;18.45;65.12
16030;BME280;34770;49.272;11.070;2022-07-15T06:36:33;98105.50;;;18.18;64.79
16030;BME280;34770;49.272;11.070;2022-07-15T06:38:59;98122.84;;;18.49;66.58
16030;BME280;34770;49.272;11.070;2022-07-15T06:41:25;98103.53;;;18.62;64.43
16030;BME280;34770;49.272;11.070;2022-07-15T06:43:50;98118.84;;;18.76;65.08
16030;BME280;34770;49.272;11.070;2022-07-15T06:46:16;98111.63;;;18.93;64.44
16030;BME280;34770;49.272;11.070;2022-07-15T06:48:41;98119.63;;;18.76;62.38
16030;BME280;34770;49.272;11.070;2022-07-15T06:51:07;98109.56;;;19.15;64.77
16030;BME280;34770;49.272;11.070;2022-07-15T06:53:33;98113.13;;;19.41;65.50
16030;BME280;34770;49.272;11.070;2022-07-15T06:55:59;98093.81;;;19.28;61.57
16030;BME280;34770;49.272;11.070;2022-07-15T06:58:24;98124.03;;;19.39;63.48
16030;BME280;34770;49.272;11.070;2022-07-15T07:00:50;98114.78;;;19.24;61.59
16030;BME280;34770;49.272;11.070;2022-07-15T07:03:15;98114.75;;;19.45;64.15
16030;BME280;34770;49.272;11.070;2022-07-15T07:05:40;98121.50;;;19.73;62.10
16030;BME280;34770;49.272;11.070;2022-07-15T07:08:06;98115.84;;;19.81;60.52
16030;BME280;34770;49.272;11.070;2022-07-15T07:10:32;98120.31;;;19.71;58.36
16030;BME280;34770;49.272;11.070;2022-07-15T07:12:58;98123.94;;;19.75;59.41
16030;BME280;34770;49.272;11.070;2022-07-15T07:15:24;98130.00;;;19.63;60.17
16030;BME280;34770;49.272;11.070;2022-07-15T07:17:50;98119.50;;;19.85;58.69
16030;BME280;34770;49.272;11.070;2022-07-15T07:20:17;98112.88;;;20.13;58.72
16030;BME280;34770;49.272;11.070;2022-07-15T07:22:42;98120.94;;;20.15;57.53
16030;BME280;34770;49.272;11.070;2022-07-15T07:25:08;98116.06;;;20.22;56.23
16030;BME280;34770;49.272;11.070;2022-07-15T07:27:33;98107.38;;;19.77;56.21
16030;BME280;34770;49.272;11.070;2022-07-15T07:29:59;98124.16;;;20.20;57.29
16030;BME280;34770;49.272;11.070;2022-07-15T07:32:27;98120.69;;;20.54;57.08
16030;BME280;34770;49.272;11.070;2022-07-15T07:34:52;98117.44;;;20.60;56.87
16030;BME280;34770;49.272;11.070;2022-07-15T07:37:18;98113.25;;;20.82;53.49
16030;BME280;34770;49.272;11.070;2022-07-15T07:39:43;98111.03;;;21.04;51.32
16030;BME280;34770;49.272;11.070;2022-07-15T07:42:09;98102.78;;;21.21;51.34
16030;BME280;34770;49.272;11.070;2022-07-15T07:44:35;98100.28;;;21.30;51.38
16030;BME280;34770;49.272;11.070;2022-07-15T07:47:01;98102.03;;;21.59;52.85
16030;BME280;34770;49.272;11.070;2022-07-15T07:49:27;98101.53;;;21.26;47.93
16030;BME280;34770;49.272;11.070;2022-07-15T07:51:52;98101.00;;;21.38;46.80
16030;BME280;34770;49.272;11.070;2022-07-15T07:54:18;98109.19;;;21.29;46.86
16030;BME280;34770;49.272;11.070;2022-07-15T07:56:43;98110.34;;;21.73;46.15
16030;BME280;34770;49.272;11.070;2022-07-15T07:59:10;98112.91;;;21.95;46.96
16030;BME280;34770;49.272;11.070;2022-07-15T08:01:36;98110.13;;;21.91;46.62
16030;BME280;34770;49.272;11.070;2022-07-15T08:04:01;98093.56;;;21.90;46.76
16030;BME280;34770;49.272;11.070;2022-07-15T08:06:27;98098.47;;;22.17;47.58
16030;BME280;34770;49.272;11.070;2022-07-15T08:08:52;98099.44;;;22.34;46.06
16030;BME280;34770;49.272;11.070;2022-07-15T08:11:18;98099.88;;;22.32;44.89
16030;BME280;34770;49.272;11.070;2022-07-15T08:13:45;98095.97;;;22.50;43.72
16030;BME280;34770;49.272;11.070;2022-07-15T08:16:10;98080.88;;;22.29;44.12
16030;BME280;34770;49.272;11.070;2022-07-15T08:18:36;98098.97;;;22.90;44.72
16030;BME280;34770;49.272;11.070;2022-07-15T08:21:02;98090.91;;;23.12;44.18
16030;BME280;34770;49.272;11.070;2022-07-15T08:23:29;98097.78;;;23.35;44.33
16030;BME280;34770;49.272;11.070;2022-07-15T08:25:54;98095.72;;;23.59;43.62
16030;BME280;34770;49.272;11.070;2022-07-15T08:28:20;98098.16;;;24.01;42.92
16030;BME280;34770;49.272;11.070;2022-07-15T08:30:46;98094.69;;;23.69;40.84
16030;BME280;34770;49.272;11.070;2022-07-15T08:33:12;98091.56;;;24.04;41.87
16030;BME280;34770;49.272;11.070;2022-07-15T08:35:38;98090.53;;;23.54;41.70
16030;BME280;34770;49.272;11.070;2022-07-15T08:38:06;98102.53;;;22.46;42.04
16030;BME280;34770;49.272;11.070;2022-07-15T08:40:33;98104.81;;;21.97;45.65
16030;BME280;34770;49.272;11.070;2022-07-15T08:42:58;98088.00;;;22.10;43.74
16030;BME280;34770;49.272;11.070;2022-07-15T08:45:24;98093.41;;;22.01;44.22
16030;BME280;34770;49.272;11.070;2022-07-15T08:47:51;98085.41;;;21.92;45.04
16030;BME280;34770;49.272;11.070;2022-07-15T08:50:17;98093.13;;;21.53;44.97
16030;BME280;34770;49.272;11.070;2022-07-15T08:52:45;98082.41;;;21.75;44.29
16030;BME280;34770;49.272;11.070;2022-07-15T08:55:12;98088.56;;;21.28;45.53
16030;BME280;34770;49.272;11.070;2022-07-15T08:57:38;98103.50;;;21.29;45.74
16030;BME280;34770;49.272;11.070;2022-07-15T09:00:05;98096.78;;;21.15;44.55
16030;BME280;34770;49.272;11.070;2022-07-15T09:02:36;98096.00;;;21.49;45.74
16030;BME280;34770;49.272;11.070;2022-07-15T09:05:19;98096.09;;;21.42;45.22
16030;BME280;34770;49.272;11.070;2022-07-15T09:08:11;98097.88;;;21.67;45.48
16030;BME280;34770;49.272;11.070;2022-07-15T09:10:58;98100.09;;;22.72;44.95
16030;BME280;34770;49.272;11.070;2022-07-15T09:13:34;98100.09;;;22.45;43.56
16030;BME280;34770;49.272;11.070;2022-07-15T09:18:33;98083.88;;;23.20;43.12
16030;BME280;34770;49.272;11.070;2022-07-15T09:20:59;98094.63;;;23.33;41.75
16030;BME280;34770;49.272;11.070;2022-07-15T09:23:28;98072.06;;;23.66;41.96
16030;BME280;34770;49.272;11.070;2022-07-15T09:26:24;98075.19;;;23.71;40.30
16030;BME280;34770;49.272;11.070;2022-07-15T09:28:50;98084.97;;;22.79;41.12
16030;BME280;34770;49.272;11.070;2022-07-15T09:31:35;98081.41;;;22.99;42.31
16030;BME280;34770;49.272;11.070;2022-07-15T09:34:20;98092.50;;;22.89;41.31
16030;BME280;34770;49.272;11.070;2022-07-15T09:36:51;98086.13;;;23.05;40.61
16030;BME280;34770;49.272;11.070;2022-07-15T09:39:20;98084.56;;;22.81;40.12
16030;BME280;34770;49.272;11.070;2022-07-15T09:41:47;98087.09;;;22.47;41.42
16030;BME280;34770;49.272;11.070;2022-07-15T09:44:15;98085.03;;;22.99;41.28
16030;BME280;34770;49.272;11.070;2022-07-15T09:49:14;98098.59;;;23.11;42.07
16030;BME280;34770;49.272;11.070;2022-07-15T09:51:47;98104.31;;;22.60;41.40
16030;BME280;34770;49.272;11.070;2022-07-15T09:54:13;98088.59;;;21.97;41.34
16030;BME280;34770;49.272;11.070;2022-07-15T09:56:39;98092.59;;;22.58;40.42
16030;BME280;34770;49.272;11.070;2022-07-15T09:59:04;98096.88;;;23.41;39.38
16030;BME280;34770;49.272;11.070;2022-07-15T10:01:31;98071.75;;;24.37;39.37
16030;BME280;34770;49.272;11.070;2022-07-15T10:03:57;98069.44;;;23.95;37.52
16030;BME280;34770;49.272;11.070;2022-07-15T10:06:25;98078.97;;;24.91;38.73
16030;BME280;34770;49.272;11.070;2022-07-15T10:08:52;98090.63;;;23.70;39.02
16030;BME280;34770;49.272;11.070;2022-07-15T10:11:19;98094.25;;;23.91;41.15
16030;BME280;34770;49.272;11.070;2022-07-15T10:28:12;98069.59;;;25.24;37.31
16030;BME280;34770;49.272;11.070;2022-07-15T10:30:41;98080.28;;;24.37;36.81
16030;BME280;34770;49.272;11.070;2022-07-15T10:35:50;98079.47;;;23.16;39.59
16030;BME280;34770;49.272;11.070;2022-07-15T10:38:25;98093.75;;;22.61;40.47
16030;BME280;34770;49.272;11.070;2022-07-15T10:41:12;98074.44;;;21.66;41.27
16030;BME280;34770;49.272;11.070;2022-07-15T10:43:42;98082.97;;;21.63;42.09
16030;BME280;34770;49.272;11.070;2022-07-15T10:46:20;98085.25;;;21.75;41.94
16030;BME280;34770;49.272;11.070;2022-07-15T10:48:47;98071.78;;;22.41;41.29
16030;BME280;34770;49.272;11.070;2022-07-15T10:54:05;98054.84;;;23.73;38.89
16030;BME280;34770;49.272;11.070;2022-07-15T10:56:42;98084.34;;;23.59;38.83
16030;BME280;34770;49.272;11.070;2022-07-15T11:01:41;98070.53;;;23.81;39.39
16030;BME280;34770;49.272;11.070;2022-07-15T11:04:14;98075.09;;;24.32;37.21
16030;BME280;34770;49.272;11.070;2022-07-15T11:12:09;98061.22;;;24.71;36.24
16030;BME280;34770;49.272;11.070;2022-07-15T11:14:49;98053.59;;;25.59;34.82
16030;BME280;34770;49.272;11.070;2022-07-15T11:17:19;98035.78;;;25.55;34.83
16030;BME280;34770;49.272;11.070;2022-07-15T11:19:49;98062.69;;;25.08;36.92
16030;BME280;34770;49.272;11.070;2022-07-15T11:22:19;98049.00;;;24.53;37.12
16030;BME280;34770;49.272;11.070;2022-07-15T11:24:46;98029.34;;;24.26;38.35
16030;BME280;34770;49.272;11.070;2022-07-15T11:27:11;98047.94;;;24.64;38.80
16030;BME280;34770;49.272;11.070;2022-07-15T11:32:18;98040.81;;;24.23;38.15
16030;BME280;34770;49.272;11.070;2022-07-15T11:34:47;98050.34;;;23.96;38.41
16030;BME280;34770;49.272;11.070;2022-07-15T11:37:14;98039.19;;;23.45;39.84
16030;BME280;34770;49.272;11.070;2022-07-15T11:39:48;98025.69;;;23.08;39.25
16030;BME280;34770;49.272;11.070;2022-07-15T11:42:22;98034.84;;;24.50;37.39
16030;BME280;34770;49.272;11.070;2022-07-15T11:45:08;98030.56;;;25.08;35.81
16030;BME280;34770;49.272;11.070;2022-07-15T11:47:34;98020.31;;;24.81;36.95
16030;BME280;34770;49.272;11.070;2022-07-15T11:50:01;98018.34;;;25.53;35.30
16030;BME280;34770;49.272;11.070;2022-07-15T11:52:28;98016.88;;;25.32;34.57
16030;BME280;34770;49.272;11.070;2022-07-15T11:54:53;98004.59;;;25.06;35.99
16030;BME280;34770;49.272;11.070;2022-07-15T11:57:20;98020.41;;;25.53;35.46
16030;BME280;34770;49.272;11.070;2022-07-15T11:59:57;98017.94;;;25.68;35.93
16030;BME280;34770;49.272;11.070;2022-07-15T12:02:25;97993.22;;;25.35;34.44
16030;BME280;34770;49.272;11.070;2022-07-15T12:04:51;98016.16;;;24.98;36.54
16030;BME280;34770;49.272;11.070;2022-07-15T12:07:18;98022.25;;;24.84;35.47
16030;BME280;34770;49.272;11.070;2022-07-15T12:09:49;97992.66;;;25.83;34.93
16030;BME280;34770;49.272;11.070;2022-07-15T12:12:17;98000.19;;;25.89;32.92
16030;BME280;34770;49.272;11.070;2022-07-15T12:14:46;98006.47;;;26.49;34.75
16030;BME280;34770;49.272;11.070;2022-07-15T12:17:12;97997.47;;;26.37;33.52
16030;BME280;34770;49.272;11.070;2022-07-15T12:19:38;97993.50;;;26.22;32.27
16030;BME280;34770;49.272;11.070;2022-07-15T12:22:08;97997.78;;;25.88;33.84
16030;BME280;34770;49.272;11.070;2022-07-15T12:24:43;98009.38;;;25.68;34.03
16030;BME280;34770;49.272;11.070;2022-07-15T12:27:11;97989.41;;;25.25;34.23
16030;BME280;34770;49.272;11.070;2022-07-15T12:29:36;98001.44;;;24.54;34.64
16030;BME280;34770;49.272;11.070;2022-07-15T12:32:08;97998.84;;;25.22;33.75
16030;BME280;34770;49.272;11.070;2022-07-15T12:37:15;98011.59;;;24.55;34.91
16030;BME280;34770;49.272;11.070;2022-07-15T12:40:03;98004.91;;;25.24;33.73
16030;BME280;34770;49.272;11.070;2022-07-15T12:42:30;97994.03;;;26.30;33.70
16030;BME280;34770;49.272;11.070;2022-07-15T12:45:37;97991.44;;;26.35;34.22
16030;BME280;34770;49.272;11.070;2022-07-15T12:48:10;97987.06;;;26.05;32.73
16030;BME280;34770;49.272;11.070;2022-07-15T12:53:12;97984.50;;;25.55;34.76
16030;BME280;34770;49.272;11.070;2022-07-15T12:55:44;97972.22;;;25.29;32.37
16030;BME280;34770;49.272;11.070;2022-07-15T12:58:13;97973.88;;;26.11;33.60
16030;BME280;34770;49.272;11.070;2022-07-15T13:00:41;97991.19;;;26.42;31.89
16030;BME280;34770;49.272;11.070;2022-07-15T13:03:09;97991.81;;;26.11;31.88
16030;BME280;34770;49.272;11.070;2022-07-15T13:05:43;97983.38;;;26.69;31.10
16030;BME280;34770;49.272;11.070;2022-07-15T13:08:30;97980.00;;;27.53;31.77
16030;BME280;34770;49.272;11.070;2022-07-15T13:10:59;97982.91;;;27.18;30.92
16030;BME280;34770;49.272;11.070;2022-07-15T13:13:27;97974.59;;;27.11;30.85
16030;BME280;34770;49.272;11.070;2022-07-15T13:15:53;97981.38;;;27.71;31.35
16030;BME280;34770;49.272;11.070;2022-07-15T13:18:19;97968.72;;;27.81;30.99
16030;BME280;34770;49.272;11.070;2022-07-15T13:20:46;97983.81;;;27.82;30.82
16030;BME280;34770;49.272;11.070;2022-07-15T13:23:12;97967.00;;;26.95;32.29
16030;BME280;34770;49.272;11.070;2022-07-15T13:25:38;97964.97;;;26.83;31.50
16030;BME280;34770;49.272;11.070;2022-07-15T13:28:07;97961.38;;;26.56;31.43
16030;BME280;34770;49.272;11.070;2022-07-15T13:30:33;97949.38;;;25.45;32.73
16030;BME280;34770;49.272;11.070;2022-07-15T13:32:58;97970.97;;;26.63;32.47